Time;durP1;ratioP1;P1;durP2;ratioP2;P2;SDS_P1;SDS_P2;PMS_P1;PMS_P2;Temp;Humidity;BMP_temperature;BMP_pressure;BME280_temperature;BME280_humidity;BME280_pressure;Samples;Min_cycle;Max_cycle;Signal;HPM_P1;HPM_P2
2023/06/24 00:00:37;;;;;;;18.77;9.90;;;;;;;18.35;83.49;102329.59;4987411;28;20108;-70
2023/06/24 00:03:03;;;;;;;15.80;10.93;;;;;;;18.28;84.43;102328.34;4987962;28;20054;-69
2023/06/24 00:05:28;;;;;;;17.65;10.77;;;;;;;18.25;84.07;102328.59;4987572;28;20034;-70
2023/06/24 00:07:56;;;;;;;21.25;10.45;;;;;;;18.23;83.48;102325.97;5002659;28;20042;-72
2023/06/24 00:10:22;;;;;;;16.92;10.25;;;;;;;18.22;83.63;102323.31;4987092;28;20069;-72
2023/06/24 00:12:48;;;;;;;13.95;9.52;;;;;;;18.21;83.02;102321.56;4984723;28;20469;-71
2023/06/24 00:15:13;;;;;;;12.32;9.02;;;;;;;18.14;84.68;102337.72;4986374;28;20398;-72
2023/06/24 00:17:39;;;;;;;14.68;9.98;;;;;;;18.10;84.68;102327.97;4986567;28;20053;-72
2023/06/24 00:20:07;;;;;;;13.95;10.02;;;;;;;18.10;83.54;102337.09;4987401;28;20034;-72
2023/06/24 00:22:32;;;;;;;16.67;11.18;;;;;;;18.06;84.21;102337.47;4987159;28;20046;-72
2023/06/24 00:24:58;;;;;;;16.20;11.32;;;;;;;18.01;84.50;102340.59;4987069;28;20069;-72
2023/06/24 00:27:24;;;;;;;13.85;10.48;;;;;;;17.98;84.16;102338.06;4986494;28;20443;-72
2023/06/24 00:29:49;;;;;;;16.08;10.00;;;;;;;17.95;84.45;102337.44;5001500;28;20149;-72
2023/06/24 00:32:15;;;;;;;15.23;10.75;;;;;;;17.92;84.67;102334.94;5002283;28;20030;-72
2023/06/24 00:34:47;;;;;;;13.90;10.60;;;;;;;17.89;85.03;102347.06;4986435;28;20183;-72
2023/06/24 00:37:13;;;;;;;17.60;9.70;;;;;;;17.88;83.98;102345.31;4994451;28;20498;-72
2023/06/24 00:39:38;;;;;;;13.90;10.20;;;;;;;17.85;84.21;102349.16;5007274;28;20057;-72
2023/06/24 00:42:05;;;;;;;17.48;10.45;;;;;;;17.80;84.44;102332.16;4997768;28;20042;-72
2023/06/24 00:44:30;;;;;;;15.20;10.25;;;;;;;17.79;84.88;102335.91;4994513;28;20515;-72
2023/06/24 00:46:59;;;;;;;13.60;9.65;;;;;;;17.81;84.42;102342.19;4985915;28;20039;-72
2023/06/24 00:49:24;;;;;;;17.42;10.60;;;;;;;17.74;85.12;102346.41;4987134;28;20348;-72
2023/06/24 00:51:50;;;;;;;16.08;9.57;;;;;;;17.66;85.44;102354.34;5007360;28;20374;-72
2023/06/24 00:54:18;;;;;;;13.93;9.82;;;;;;;17.57;86.51;102355.94;4991567;28;20030;-72
2023/06/24 00:56:45;;;;;;;14.32;10.30;;;;;;;17.51;86.73;102353.69;4984787;28;20073;-71
2023/06/24 00:59:15;;;;;;;16.50;10.35;;;;;;;17.48;86.21;102353.03;5017315;28;20128;-72
2023/06/24 01:01:41;;;;;;;19.10;10.15;;;;;;;17.49;85.69;102352.06;5002873;28;20044;-72
2023/06/24 01:04:07;;;;;;;12.68;9.93;;;;;;;17.46;85.52;102347.66;5003660;28;20030;-72
2023/06/24 01:06:35;;;;;;;13.23;8.90;;;;;;;17.44;85.40;102340.50;5013069;28;20041;-72
2023/06/24 01:09:02;;;;;;;14.23;9.35;;;;;;;17.42;85.12;102331.50;4999093;28;20026;-72
2023/06/24 01:11:28;;;;;;;13.85;9.05;;;;;;;17.39;85.98;102338.09;5005709;28;20057;-72
2023/06/24 01:13:54;;;;;;;16.83;9.45;;;;;;;17.35;86.38;102339.38;4989709;28;20117;-72
2023/06/24 01:16:41;;;;;;;14.02;9.40;;;;;;;17.30;86.90;102336.09;5005086;28;20113;-72
2023/06/24 01:19:51;;;;;;;14.32;9.85;;;;;;;17.30;85.49;102334.22;4995079;28;20077;-72
2023/06/24 01:22:30;;;;;;;13.75;9.40;;;;;;;17.29;85.71;102334.31;4992048;28;20060;-72
2023/06/24 01:25:15;;;;;;;14.43;8.55;;;;;;;17.25;86.04;102319.03;4989072;28;20049;-72
2023/06/24 01:28:08;;;;;;;14.52;8.52;;;;;;;17.24;85.53;102326.41;4990989;28;20042;-72
2023/06/24 01:30:52;;;;;;;10.25;7.80;;;;;;;17.23;85.71;102329.31;4991471;28;20886;-72
2023/06/24 01:33:25;;;;;;;12.90;9.55;;;;;;;17.16;86.46;102328.00;5004055;28;20073;-72
2023/06/24 01:35:52;;;;;;;12.57;8.85;;;;;;;17.14;86.01;102319.00;4989669;28;20062;-72
2023/06/24 01:38:43;;;;;;;15.10;8.98;;;;;;;17.12;85.99;102324.63;4989966;28;20054;-72
2023/06/24 01:41:13;;;;;;;16.15;9.68;;;;;;;17.02;88.02;102318.06;4990053;28;20062;-72
2023/06/24 01:43:43;;;;;;;13.38;9.00;;;;;;;17.01;87.08;102319.06;5006527;28;20038;-72
2023/06/24 01:46:10;;;;;;;12.50;9.02;;;;;;;16.97;86.74;102318.44;5005274;28;20081;-72
2023/06/24 01:48:39;;;;;;;11.48;8.55;;;;;;;16.92;86.82;102317.88;5006053;28;20058;-72
2023/06/24 01:51:09;;;;;;;15.25;8.48;;;;;;;16.91;87.25;102318.88;5004517;28;20084;-73
2023/06/24 01:53:39;;;;;;;13.73;9.77;;;;;;;16.88;87.35;102320.97;4997087;28;20405;-72
2023/06/24 01:56:08;;;;;;;14.15;9.23;;;;;;;16.81;87.96;102313.19;4993963;28;20449;-72
2023/06/24 01:58:35;;;;;;;11.48;8.20;;;;;;;16.80;87.31;102318.81;4996673;28;20297;-72
2023/06/24 02:01:02;;;;;;;11.68;8.18;;;;;;;16.76;86.48;102307.19;5004955;28;20453;-72
2023/06/24 02:03:28;;;;;;;13.27;8.50;;;;;;;16.73;86.15;102318.38;4989679;28;20041;-72
2023/06/24 02:05:55;;;;;;;13.00;8.35;;;;;;;16.69;86.66;102313.19;5003765;28;20533;-72
2023/06/24 02:08:22;;;;;;;16.55;8.77;;;;;;;16.64;87.61;102313.53;4988164;28;20121;-72
2023/06/24 02:10:49;;;;;;;11.77;8.13;;;;;;;16.63;86.60;102311.81;4986677;28;20039;-72
2023/06/24 02:13:16;;;;;;;13.00;7.30;;;;;;;16.56;87.30;102297.66;4989181;28;20120;-72
2023/06/24 02:15:43;;;;;;;15.02;8.27;;;;;;;16.54;87.22;102305.13;5004790;28;20096;-72
2023/06/24 02:18:10;;;;;;;13.23;7.88;;;;;;;16.50;87.32;102305.44;4988472;28;20351;-72
2023/06/24 02:20:38;;;;;;;18.10;8.45;;;;;;;16.46;87.35;102310.31;4988930;28;20049;-72
2023/06/24 02:23:06;;;;;;;12.68;7.82;;;;;;;16.42;86.93;102307.91;4989154;28;20153;-72
2023/06/24 02:25:32;;;;;;;12.20;7.72;;;;;;;16.40;87.24;102313.50;4986285;28;20030;-72
2023/06/24 02:27:58;;;;;;;13.13;8.38;;;;;;;16.33;87.24;102310.34;5002810;28;20406;-72
2023/06/24 02:30:25;;;;;;;14.45;8.27;;;;;;;16.28;87.35;102307.06;4987571;28;20073;-72
2023/06/24 02:32:52;;;;;;;12.55;7.80;;;;;;;16.23;87.09;102303.78;4986826;28;20118;-72
2023/06/24 02:35:17;;;;;;;9.93;7.50;;;;;;;16.22;87.50;102310.22;4988680;28;20118;-72
2023/06/24 02:37:43;;;;;;;13.02;8.55;;;;;;;16.19;87.39;102310.47;4989195;28;20566;-72
2023/06/24 02:40:09;;;;;;;9.90;7.78;;;;;;;16.16;87.41;102310.69;5002960;28;20034;-72
2023/06/24 02:42:35;;;;;;;11.68;8.07;;;;;;;16.12;87.45;102314.63;4989381;28;20023;-72
2023/06/24 02:45:02;;;;;;;13.27;7.65;;;;;;;16.10;86.47;102310.28;4988549;28;20185;-72
2023/06/24 02:47:28;;;;;;;14.63;8.23;;;;;;;16.07;87.77;102305.88;5003147;28;20034;-73
2023/06/24 02:49:57;;;;;;;14.15;9.35;;;;;;;15.99;89.37;102302.78;4988387;28;20489;-72
2023/06/24 02:52:24;;;;;;;13.30;8.23;;;;;;;15.92;88.57;102305.09;4986915;28;20454;-72
2023/06/24 02:54:49;;;;;;;15.10;8.27;;;;;;;15.94;88.30;102304.97;4986081;28;20041;-72
2023/06/24 02:57:41;;;;;;;10.32;7.55;;;;;;;15.91;87.62;102313.47;4987426;28;20491;-73
2023/06/24 03:00:39;;;;;;;10.98;7.32;;;;;;;15.87;87.56;102312.78;5003699;28;20034;-72
2023/06/24 03:03:21;;;;;;;;;;;;;;;15.94;85.46;102318.72;4995670;28;20030;-72
2023/06/24 03:05:54;;;;;;;12.93;7.63;;;;;;;15.82;87.34;102317.72;5002786;28;19917;-72
2023/06/24 03:08:20;;;;;;;12.27;7.35;;;;;;;15.79;87.49;102320.69;5003396;28;20061;-73
2023/06/24 03:10:48;;;;;;;12.98;7.60;;;;;;;15.77;87.45;102329.03;4985692;28;20226;-72
2023/06/24 03:13:18;;;;;;;12.07;6.75;;;;;;;15.74;88.10;102328.38;5003080;28;20069;-73
2023/06/24 03:15:49;;;;;;;16.50;8.13;;;;;;;15.70;88.56;102324.06;4986551;28;20073;-72
2023/06/24 03:18:17;;;;;;;13.65;8.15;;;;;;;15.66;89.08;102334.38;5003027;28;20030;-73
2023/06/24 03:20:43;;;;;;;9.38;6.85;;;;;;;15.64;88.26;102330.00;5003519;28;20034;-73
2023/06/24 03:23:12;;;;;;;11.68;7.78;;;;;;;15.61;88.62;102322.81;4986835;28;20124;-73
2023/06/24 03:25:38;;;;;;;12.90;7.88;;;;;;;15.60;88.29;102323.81;4985949;28;20458;-73
2023/06/24 03:28:07;;;;;;;10.57;7.30;;;;;;;15.59;88.01;102316.56;4985817;28;20046;-72
2023/06/24 03:30:34;;;;;;;16.65;7.75;;;;;;;15.56;88.72;102317.66;4988016;28;20457;-72
2023/06/24 03:32:59;;;;;;;13.43;8.68;;;;;;;15.54;89.17;102314.16;4994563;28;20030;-73
2023/06/24 03:35:25;;;;;;;10.63;7.45;;;;;;;15.51;89.05;102310.75;5002339;28;20062;-72
2023/06/24 03:37:55;;;;;;;11.65;8.35;;;;;;;15.52;89.53;102320.72;4985920;28;20081;-73
2023/06/24 03:40:20;;;;;;;14.23;8.30;;;;;;;15.49;88.60;102315.47;4987415;28;20097;-73
2023/06/24 03:42:46;;;;;;;11.55;8.43;;;;;;;15.49;88.99;102313.59;4985649;28;20034;-73
2023/06/24 03:45:11;;;;;;;14.95;7.85;;;;;;;15.46;89.47;102316.56;4986080;28;20034;-72
2023/06/24 03:47:38;;;;;;;14.63;7.70;;;;;;;15.44;89.30;102320.41;4989369;28;20049;-72
2023/06/24 03:50:04;;;;;;;12.05;7.55;;;;;;;15.41;89.66;102328.81;5005551;28;20417;-72
2023/06/24 03:52:30;;;;;;;13.25;7.18;;;;;;;15.41;89.10;102324.22;4989170;28;20026;-73
2023/06/24 03:54:55;;;;;;;11.32;7.00;;;;;;;15.43;89.36;102326.84;5002570;28;20131;-72
2023/06/24 03:57:22;;;;;;;9.38;7.03;;;;;;;15.43;89.54;102327.72;4987760;28;20110;-73
2023/06/24 03:59:47;;;;;;;13.07;8.10;;;;;;;15.40;89.08;102332.56;4987961;28;20041;-73
2023/06/24 04:02:13;;;;;;;12.30;7.53;;;;;;;15.41;89.97;102332.44;4988587;28;20046;-73
2023/06/24 04:04:39;;;;;;;13.15;8.02;;;;;;;15.40;89.97;102332.56;5002791;28;20394;-73
2023/06/24 04:07:07;;;;;;;16.42;9.38;;;;;;;15.41;89.60;102328.81;4985259;28;20030;-73
2023/06/24 04:09:35;;;;;;;13.02;8.13;;;;;;;15.42;89.71;102336.94;4985264;28;20375;-73
2023/06/24 04:12:01;;;;;;;14.95;7.53;;;;;;;15.43;89.39;102330.47;5001828;28;20041;-73
2023/06/24 04:14:32;;;;;;;14.45;7.72;;;;;;;15.44;89.77;102337.72;5011041;28;20468;-72
2023/06/24 04:16:57;;;;;;;12.73;7.50;;;;;;;15.46;89.22;102333.00;5005544;28;20125;-73
2023/06/24 04:19:23;;;;;;;12.60;8.02;;;;;;;15.46;89.40;102338.50;4986625;28;20048;-73
2023/06/24 04:21:49;;;;;;;14.65;8.32;;;;;;;15.45;90.40;102333.13;4985070;28;20069;-73
2023/06/24 04:24:14;;;;;;;12.38;8.07;;;;;;;15.44;89.75;102331.38;4986002;28;20038;-72
2023/06/24 04:26:39;;;;;;;10.32;7.10;;;;;;;15.47;89.57;102337.50;4986040;28;20482;-73
2023/06/24 04:29:05;;;;;;;13.30;7.53;;;;;;;15.50;90.07;102339.16;4985683;28;20125;-73
2023/06/24 04:31:30;;;;;;;15.13;7.57;;;;;;;15.51;90.04;102339.03;5007662;28;20188;-73
2023/06/24 04:33:55;;;;;;;10.00;7.03;;;;;;;15.54;90.56;102327.00;5002029;28;20347;-73
2023/06/24 04:36:21;;;;;;;14.82;8.38;;;;;;;15.57;91.50;102333.16;5001793;28;20077;-73
2023/06/24 04:38:47;;;;;;;12.35;7.20;;;;;;;15.59;91.02;102327.56;4985730;28;20042;-72
2023/06/24 04:41:12;;;;;;;11.80;7.60;;;;;;;15.65;90.76;102329.88;4986935;28;20458;-73
2023/06/24 04:43:38;;;;;;;12.13;7.90;;;;;;;15.70;90.84;102329.56;4987443;28;20066;-73
2023/06/24 04:46:03;;;;;;;15.73;7.78;;;;;;;15.70;90.71;102333.19;4987297;28;20046;-72
2023/06/24 04:48:28;;;;;;;10.35;7.78;;;;;;;15.73;91.33;102340.34;4997171;28;20443;-73
2023/06/24 04:50:54;;;;;;;13.23;8.00;;;;;;;15.73;92.41;102337.59;4991921;28;20116;-73
2023/06/24 04:53:21;;;;;;;13.15;8.07;;;;;;;15.79;91.29;102337.16;4986526;28;20022;-73
2023/06/24 04:55:46;;;;;;;12.57;8.45;;;;;;;15.85;90.85;102344.94;5001037;28;20031;-73
2023/06/24 04:58:12;;;;;;;11.80;8.65;;;;;;;15.87;91.65;102340.25;5007026;28;20101;-73
2023/06/24 05:00:37;;;;;;;15.60;8.82;;;;;;;15.88;90.93;102330.13;4989655;28;20117;-72
2023/06/24 05:03:02;;;;;;;16.35;8.68;;;;;;;15.92;90.85;102331.69;4991652;28;20108;-73
2023/06/24 05:05:28;;;;;;;16.48;10.25;;;;;;;15.95;91.07;102334.22;5005193;28;20070;-73
2023/06/24 05:07:53;;;;;;;17.15;11.35;;;;;;;16.00;90.60;102337.50;4990533;28;20044;-73
2023/06/24 05:10:18;;;;;;;18.05;11.48;;;;;;;16.04;90.10;102339.91;4988588;28;20512;-73
2023/06/24 05:12:44;;;;;;;20.08;12.65;;;;;;;16.10;88.77;102340.47;4991330;28;20030;-73
2023/06/24 05:15:10;;;;;;;20.10;12.65;;;;;;;16.12;89.25;102331.13;4990924;28;20048;-73
2023/06/24 05:17:35;;;;;;;19.75;12.10;;;;;;;16.18;88.86;102332.53;4989123;28;20030;-72
2023/06/24 05:20:01;;;;;;;19.85;12.25;;;;;;;16.19;89.37;102342.56;5005886;28;20482;-73
2023/06/24 05:22:26;;;;;;;20.80;11.65;;;;;;;16.23;87.84;102333.09;4988174;28;20057;-73
2023/06/24 05:24:51;;;;;;;22.10;11.93;;;;;;;16.29;87.54;102325.28;4990046;28;20042;-73
2023/06/24 05:27:17;;;;;;;24.30;12.48;;;;;;;16.33;87.47;102340.56;5005151;28;20101;-72
2023/06/24 05:29:43;;;;;;;22.40;12.93;;;;;;;16.37;88.49;102335.72;4990849;28;20576;-73
2023/06/24 05:32:08;;;;;;;20.08;12.82;;;;;;;16.40;86.79;102334.59;5004217;28;20519;-73
2023/06/24 05:34:34;;;;;;;21.35;13.60;;;;;;;16.43;88.01;102332.53;5024720;28;20594;-73
2023/06/24 05:37:00;;;;;;;24.40;13.95;;;;;;;16.48;86.61;102340.41;5002862;28;20054;-73
2023/06/24 05:39:25;;;;;;;23.42;14.20;;;;;;;16.52;87.04;102347.44;4989798;28;20031;-73
2023/06/24 05:41:50;;;;;;;21.75;15.20;;;;;;;16.55;86.81;102345.38;4989889;28;20030;-73
2023/06/24 05:44:17;;;;;;;24.23;14.45;;;;;;;16.58;87.21;102347.88;4989843;28;20042;-73
2023/06/24 05:46:44;;;;;;;20.15;14.15;;;;;;;16.61;85.87;102341.28;4990787;28;20046;-73
2023/06/24 05:49:09;;;;;;;24.35;15.45;;;;;;;16.63;86.50;102342.03;4990107;28;20045;-72
2023/06/24 05:51:34;;;;;;;23.60;13.90;;;;;;;16.68;85.76;102347.19;5003930;28;20038;-73
2023/06/24 05:54:00;;;;;;;19.98;14.57;;;;;;;16.72;85.93;102351.50;5004066;28;20113;-73
2023/06/24 05:56:26;;;;;;;23.05;14.40;;;;;;;16.74;85.37;102346.75;5004111;28;20034;-72
2023/06/24 05:58:51;;;;;;;19.92;13.65;;;;;;;16.79;85.56;102350.06;4988231;28;20045;-73
2023/06/24 06:01:16;;;;;;;21.35;14.25;;;;;;;16.81;85.48;102345.31;4990045;28;20030;-73
2023/06/24 06:03:42;;;;;;;21.35;13.93;;;;;;;16.85;85.59;102346.84;4988860;28;20113;-73
2023/06/24 06:06:07;;;;;;;23.02;14.63;;;;;;;16.89;84.83;102344.75;4989045;28;20077;-73
2023/06/24 06:08:33;;;;;;;23.58;15.10;;;;;;;16.94;85.13;102343.41;5003038;28;20361;-73
2023/06/24 06:11:00;;;;;;;19.95;13.52;;;;;;;16.99;85.03;102346.69;4989051;28;20161;-73
2023/06/24 06:13:25;;;;;;;20.88;14.20;;;;;;;17.06;85.70;102352.56;4989984;28;20038;-73
2023/06/24 06:15:51;;;;;;;19.02;13.77;;;;;;;17.08;85.91;102348.72;4989341;28;20029;-73
2023/06/24 06:18:16;;;;;;;22.13;14.80;;;;;;;17.12;85.39;102348.50;4989441;28;20031;-73
2023/06/24 06:20:41;;;;;;;23.15;14.18;;;;;;;17.20;85.64;102349.66;5004464;28;20045;-73
2023/06/24 06:23:07;;;;;;;18.73;12.02;;;;;;;17.24;85.34;102347.56;5000600;28;20038;-72
2023/06/24 06:25:32;;;;;;;20.05;12.15;;;;;;;17.26;84.40;102359.34;5001550;28;20054;-74
2023/06/24 06:27:58;;;;;;;18.65;11.48;;;;;;;17.30;84.31;102361.72;5001464;28;20031;-73
2023/06/24 06:30:23;;;;;;;19.05;11.55;;;;;;;17.33;84.10;102360.59;5016955;28;20475;-73
2023/06/24 06:32:48;;;;;;;16.20;10.60;;;;;;;17.37;82.42;102362.13;5002977;28;20021;-73
2023/06/24 06:35:14;;;;;;;17.20;10.10;;;;;;;17.41;82.30;102365.53;4988594;28;20126;-72
2023/06/24 06:37:39;;;;;;;18.08;10.63;;;;;;;17.43;81.81;102360.75;4989404;28;20057;-73
2023/06/24 06:40:05;;;;;;;14.98;9.73;;;;;;;17.48;81.72;102362.16;4987200;28;20064;-73
2023/06/24 06:42:31;;;;;;;18.30;10.07;;;;;;;17.53;82.36;102365.47;4989114;28;20390;-73
2023/06/24 06:44:56;;;;;;;15.88;10.40;;;;;;;17.57;81.08;102361.44;4988903;28;20034;-73
2023/06/24 06:47:22;;;;;;;16.90;9.25;;;;;;;17.63;81.61;102373.00;4987332;28;20046;-73
2023/06/24 06:49:48;;;;;;;16.42;9.82;;;;;;;17.67;81.06;102374.50;4988952;28;20049;-73
2023/06/24 06:52:13;;;;;;;13.88;8.73;;;;;;;17.70;81.74;102371.50;5003617;28;20050;-72
2023/06/24 06:54:38;;;;;;;13.98;8.93;;;;;;;17.78;81.71;102371.81;4990459;28;20442;-73
2023/06/24 06:57:05;;;;;;;12.32;7.85;;;;;;;17.84;82.56;102374.09;4995042;28;20049;-73
2023/06/24 06:59:31;;;;;;;12.80;8.27;;;;;;;17.89;81.51;102373.72;4997685;28;20116;-73
2023/06/24 07:01:57;;;;;;;15.80;8.68;;;;;;;17.88;80.17;102377.47;5008017;28;20477;-73
2023/06/24 07:04:22;;;;;;;16.27;8.70;;;;;;;17.90;79.48;102381.84;5001849;28;20041;-73
2023/06/24 07:06:47;;;;;;;12.52;8.00;;;;;;;17.94;78.65;102388.88;4987594;28;20611;-73
2023/06/24 07:09:13;;;;;;;14.10;8.73;;;;;;;17.99;78.66;102391.25;5003402;28;20374;-73
2023/06/24 07:11:38;;;;;;;14.82;8.73;;;;;;;18.04;79.44;102384.38;5003380;28;20481;-73
2023/06/24 07:14:04;;;;;;;17.75;8.48;;;;;;;18.10;80.01;102386.66;4988732;28;20042;-73
2023/06/24 07:16:29;;;;;;;11.02;7.95;;;;;;;18.20;78.40;102391.44;4988593;28;20041;-73
2023/06/24 07:18:54;;;;;;;11.73;8.18;;;;;;;18.28;78.97;102391.72;4988130;28;20500;-73
2023/06/24 07:21:20;;;;;;;14.55;8.95;;;;;;;18.34;79.26;102385.69;5006249;28;20481;-73
2023/06/24 07:23:46;;;;;;;14.85;9.32;;;;;;;18.40;79.48;102392.59;5007373;28;20041;-72
2023/06/24 07:26:11;;;;;;;12.68;8.15;;;;;;;18.44;76.28;102377.56;4995141;28;20025;-72
2023/06/24 07:28:37;;;;;;;15.80;7.75;;;;;;;18.55;76.45;102388.56;4988343;28;20446;-73
2023/06/24 07:31:02;;;;;;;11.07;7.95;;;;;;;18.64;75.92;102385.06;4992467;28;20108;-73
2023/06/24 07:33:30;;;;;;;13.52;8.63;;;;;;;18.69;76.32;102385.59;5007731;28;20041;-72
2023/06/24 07:35:55;;;;;;;12.77;8.70;;;;;;;18.76;76.16;102383.22;5019430;28;20026;-72
2023/06/24 07:38:21;;;;;;;12.13;7.47;;;;;;;18.82;75.10;102383.59;4996041;28;20069;-73
2023/06/24 07:40:46;;;;;;;11.55;6.68;;;;;;;18.88;71.06;102387.72;4994471;28;20505;-73
2023/06/24 07:43:12;;;;;;;11.52;7.15;;;;;;;18.95;71.83;102388.09;4997981;28;20034;-72
2023/06/24 07:45:37;;;;;;;9.43;6.55;;;;;;;19.01;73.67;102390.31;5002278;28;20501;-73
2023/06/24 07:48:02;;;;;;;12.13;7.22;;;;;;;19.08;72.85;102383.31;5005758;28;20056;-73
2023/06/24 07:50:28;;;;;;;13.80;7.18;;;;;;;19.19;75.07;102380.50;5001734;28;20030;-72
2023/06/24 07:52:53;;;;;;;10.45;7.10;;;;;;;19.28;71.30;102382.47;5002307;28;20126;-72
2023/06/24 07:55:18;;;;;;;11.80;7.03;;;;;;;19.41;74.24;102386.97;4987124;28;20394;-72
2023/06/24 07:57:47;;;;;;;11.48;6.43;;;;;;;19.54;73.13;102384.91;4987896;28;20046;-72
2023/06/24 08:00:14;;;;;;;9.98;6.70;;;;;;;19.71;73.04;102387.09;4986952;28;20046;-73
2023/06/24 08:02:41;;;;;;;11.38;6.32;;;;;;;19.85;72.86;102384.03;4988677;28;20467;-72
2023/06/24 08:05:08;;;;;;;9.85;5.47;;;;;;;20.04;73.65;102391.56;5002226;28;20129;-73
2023/06/24 08:07:34;;;;;;;6.78;4.75;;;;;;;20.22;70.42;102386.31;5002160;28;20042;-72
2023/06/24 08:10:00;;;;;;;9.57;5.45;;;;;;;20.45;67.62;102375.94;4987235;28;20037;-72
2023/06/24 08:12:25;;;;;;;9.05;5.07;;;;;;;21.09;70.46;102380.28;5002744;28;20042;-72
2023/06/24 08:14:50;;;;;;;8.73;4.55;;;;;;;21.51;62.72;102374.56;4987579;28;20093;-72
2023/06/24 08:17:16;;;;;;;8.30;4.13;;;;;;;22.23;65.92;102376.81;4987364;28;20081;-72
2023/06/24 08:19:41;;;;;;;8.27;4.93;;;;;;;22.92;63.67;102379.19;4988227;28;20108;-73
2023/06/24 08:22:06;;;;;;;11.57;4.93;;;;;;;23.47;62.80;102369.91;4986759;28;20553;-72
2023/06/24 08:24:32;;;;;;;5.90;4.18;;;;;;;24.13;59.42;102363.03;4987390;28;20451;-72
2023/06/24 08:26:57;;;;;;;6.68;4.68;;;;;;;24.61;57.06;102359.69;5001609;28;20518;-73
2023/06/24 08:29:22;;;;;;;6.95;4.00;;;;;;;24.76;51.29;102359.94;4985715;28;20042;-72
2023/06/24 08:31:48;;;;;;;7.28;3.80;;;;;;;25.20;51.23;102362.56;4999176;28;20100;-72
2023/06/24 08:34:13;;;;;;;7.25;3.33;;;;;;;25.47;51.56;102361.38;5002770;28;20061;-71
2023/06/24 08:36:38;;;;;;;4.55;2.90;;;;;;;26.02;50.63;102359.84;4989501;28;20042;-72
2023/06/24 08:39:04;;;;;;;7.75;2.90;;;;;;;26.22;48.97;102361.22;4991147;28;20088;-72
2023/06/24 08:41:29;;;;;;;5.15;3.05;;;;;;;26.57;47.40;102359.94;5004767;28;20072;-72
2023/06/24 08:43:55;;;;;;;5.38;2.88;;;;;;;26.66;48.47;102353.25;4996157;28;20034;-73
2023/06/24 08:46:23;;;;;;;5.03;3.05;;;;;;;27.17;48.65;102358.47;4991101;28;20077;-72
2023/06/24 08:49:05;;;;;;;4.85;2.83;;;;;;;27.36;49.25;102344.00;5005745;28;20043;-72
2023/06/24 08:51:36;;;;;;;4.45;2.22;;;;;;;27.58;47.58;102358.19;4993224;28;20174;-72
2023/06/24 08:54:01;;;;;;;5.07;2.92;;;;;;;27.89;49.56;102353.41;4990572;28;20053;-71
2023/06/24 08:56:27;;;;;;;5.07;3.08;;;;;;;28.08;42.92;102348.34;4996230;28;20027;-72
2023/06/24 08:58:53;;;;;;;5.07;3.40;;;;;;;28.03;48.52;102342.47;4995013;28;20038;-72
2023/06/24 09:01:18;;;;;;;9.35;3.03;;;;;;;28.35;43.35;102344.03;5010128;28;20151;-72
2023/06/24 09:03:43;;;;;;;6.30;3.47;;;;;;;28.59;41.79;102351.31;5003690;28;20034;-71
2023/06/24 09:06:09;;;;;;;4.80;2.80;;;;;;;28.76;41.93;102349.16;5007263;28;20128;-72
2023/06/24 09:08:35;;;;;;;5.20;2.88;;;;;;;28.71;44.44;102350.59;5009233;28;20061;-72
2023/06/24 09:11:01;;;;;;;4.47;2.88;;;;;;;29.16;45.07;102356.19;4999050;28;20037;-72
2023/06/24 09:13:36;;;;;;;7.75;3.90;;;;;;;29.29;45.10;102347.06;4990476;28;20050;-72
2023/06/24 09:16:14;;;;;;;5.75;3.03;;;;;;;29.42;43.66;102350.84;5001238;28;20030;-72
2023/06/24 09:18:40;;;;;;;6.63;3.10;;;;;;;29.52;40.57;102349.66;5008403;28;20088;-72
2023/06/24 09:21:05;;;;;;;6.50;2.97;;;;;;;29.74;41.09;102351.44;5006224;28;20026;-72
2023/06/24 09:23:35;;;;;;;4.25;3.35;;;;;;;29.93;40.22;102333.03;5009325;28;20107;-72
2023/06/24 09:26:01;;;;;;;5.82;3.00;;;;;;;30.21;41.42;102333.06;5000454;28;20041;-72
2023/06/24 09:28:29;;;;;;;4.80;2.97;;;;;;;30.46;40.95;102328.69;5000581;28;20072;-72
2023/06/24 09:31:08;;;;;;;4.20;3.22;;;;;;;30.66;42.18;102330.75;5005017;28;20544;-72
2023/06/24 09:33:34;;;;;;;5.82;3.35;;;;;;;30.64;38.71;102321.69;5016418;28;20494;-72
2023/06/24 09:36:02;;;;;;;7.45;2.63;;;;;;;30.84;40.40;102325.47;4997612;28;20110;-72
2023/06/24 09:38:36;;;;;;;8.27;3.15;;;;;;;31.06;42.14;102317.78;4998306;28;20053;-72
2023/06/24 09:41:08;;;;;;;5.15;2.60;;;;;;;30.97;39.62;102317.09;5006952;28;20116;-72
2023/06/24 09:43:39;;;;;;;4.93;3.10;;;;;;;30.83;34.35;102325.69;5008236;28;20188;-72
2023/06/24 09:46:05;;;;;;;;;;;;;;;31.04;40.92;102319.03;5009224;28;20045;-71
2023/06/24 09:48:31;;;;;;;6.05;3.78;;;;;;;30.84;38.87;102313.34;5001582;28;19917;-72
2023/06/24 09:51:00;;;;;;;5.03;4.00;;;;;;;30.87;38.08;102312.91;4989451;28;20034;-72
2023/06/24 09:53:29;;;;;;;6.63;3.92;;;;;;;30.92;38.38;102307.56;4989427;28;20038;-72
2023/06/24 09:55:56;;;;;;;6.78;3.08;;;;;;;31.08;36.33;102315.59;4997681;28;20041;-72
2023/06/24 09:58:21;;;;;;;5.95;2.60;;;;;;;31.21;37.46;102314.78;5003742;28;20050;-72
2023/06/24 10:00:48;;;;;;;3.30;2.35;;;;;;;31.16;33.10;102314.56;5003148;28;20034;-72
2023/06/24 10:03:13;;;;;;;3.47;2.50;;;;;;;31.23;37.70;102312.59;5009559;28;20508;-71
2023/06/24 10:05:40;;;;;;;3.83;2.80;;;;;;;31.40;36.35;102315.94;5007138;28;20030;-71
2023/06/24 10:08:06;;;;;;;5.28;2.40;;;;;;;31.26;35.62;102320.63;5006000;28;20217;-72
2023/06/24 10:10:32;;;;;;;4.07;2.38;;;;;;;31.18;35.64;102315.19;5006608;28;20057;-72
2023/06/24 10:12:57;;;;;;;4.18;2.65;;;;;;;30.96;33.21;102315.38;5002252;28;20113;-72
2023/06/24 10:15:23;;;;;;;7.45;2.70;;;;;;;31.14;36.29;102314.75;4998523;28;20119;-71
2023/06/24 10:17:50;;;;;;;7.15;3.08;;;;;;;31.30;36.13;102315.50;5008367;28;20125;-71
2023/06/24 10:20:25;;;;;;;3.85;2.80;;;;;;;31.66;37.25;102315.97;5008169;28;20389;-71
2023/06/24 10:22:51;;;;;;;7.35;3.10;;;;;;;31.53;36.00;102307.53;5004843;28;20373;-72
2023/06/24 10:25:18;;;;;;;4.47;2.70;;;;;;;31.72;35.05;102301.03;5003077;28;20368;-71
2023/06/24 10:27:44;;;;;;;4.30;2.70;;;;;;;31.84;35.43;102311.66;5000872;28;20038;-71
2023/06/24 10:30:19;;;;;;;4.03;2.78;;;;;;;32.19;36.38;102307.53;5009305;28;20075;-71
2023/06/24 10:32:44;;;;;;;4.05;3.03;;;;;;;32.28;34.65;102301.66;4995736;28;20506;-71
2023/06/24 10:35:29;;;;;;;3.30;2.47;;;;;;;32.35;36.74;102310.94;4989520;28;20061;-72
2023/06/24 10:38:01;;;;;;;5.43;3.15;;;;;;;32.32;35.42;102292.53;5002399;28;20057;-72
2023/06/24 10:40:37;;;;;;;3.67;2.75;;;;;;;32.44;36.66;102298.38;4991455;28;20034;-73
2023/06/24 10:43:22;;;;;;;3.63;3.00;;;;;;;32.73;36.96;102294.16;4995701;28;20037;-72
2023/06/24 10:45:52;;;;;;;3.90;3.20;;;;;;;32.66;32.03;102287.69;5008129;28;20128;-72
2023/06/24 10:48:19;;;;;;;4.40;2.95;;;;;;;32.69;31.96;102290.94;5006538;28;20122;-71
2023/06/24 10:50:45;;;;;;;4.95;3.10;;;;;;;32.60;32.82;102299.88;4998117;28;20506;-71
2023/06/24 10:53:13;;;;;;;4.55;3.08;;;;;;;32.49;34.07;102295.75;4989055;28;20053;-72
2023/06/24 10:55:39;;;;;;;5.00;2.80;;;;;;;32.57;34.73;102286.22;4986819;28;20042;-72
2023/06/24 10:58:12;;;;;;;4.32;3.00;;;;;;;32.79;33.15;102287.63;4992736;28;20038;-72
2023/06/24 11:00:43;;;;;;;3.97;2.65;;;;;;;32.90;34.95;102288.88;4988827;28;20164;-72
2023/06/24 11:03:16;;;;;;;4.25;2.95;;;;;;;33.12;32.83;102287.50;4999415;28;20041;-72
2023/06/24 11:05:45;;;;;;;3.78;2.90;;;;;;;32.85;31.71;102295.19;5004085;28;20524;-71
2023/06/24 11:08:11;;;;;;;4.88;3.10;;;;;;;33.00;32.80;102289.28;5006757;28;20486;-73
2023/06/24 11:10:47;;;;;;;4.45;3.05;;;;;;;33.10;34.64;102281.19;5002320;28;20033;-71
2023/06/24 11:13:13;;;;;;;4.63;3.20;;;;;;;33.44;33.47;102285.56;5005195;28;20042;-72
2023/06/24 11:15:43;;;;;;;6.10;3.10;;;;;;;33.51;29.75;102285.50;5008596;28;20030;-72
2023/06/24 11:18:10;;;;;;;5.40;2.95;;;;;;;33.57;31.53;102266.78;5007760;28;20046;-72
2023/06/24 11:20:37;;;;;;;4.63;3.17;;;;;;;33.74;33.37;102282.06;5004382;28;20400;-72